Latest Weather Observations for Esperance Harbour

IDW60801

Issued at 2:32 am WST Saturday 7 May 2016 (issued every 30 minutes, with the page automatically refreshed every 10 minutes)

About weather observations | Map of weather stations | Latest weather observations for WA | Other Formats
Station Details ID: 109504 Name: ESPERANCE NTC AWS Lat: -33.87 Lon: 121.90 Height: 0.0 m
Data from the previous 72 hours. | See also: Recent months for locations in Western Australia
Date/Time
WST
Temp
°C
App
Temp
°C
Dew
Point
Rel
Hum
%
Delta-T
°C
Wind Press
QNH
hPa
Press
MSL
hPa
Rain
since 9 am
mm
Dir
 
Spd
km/h
Gust
km/h
Spd
kts
Gust
kts
07/02:30am 13.6 - - - - - - - - - 1002.1 1002.1 -
07/02:00am 13.7 - - - - - - - - - 1002.6 1002.6 -
07/01:30am 14.4 - - - - - - - - - 1002.7 1002.7 -
07/01:00am 14.4 - - - - - - - - - 1002.9 1002.9 -
07/12:30am 14.1 - - - - - - - - - 1003.4 1003.4 -
07/12:00am 14.3 - - - - - - - - - 1003.6 1003.6 -
 
Date/Time
WST
Temp
°C
App
Temp
°C
Dew
Point
Rel
Hum
%
Delta-T
°C
Wind Press
QNH
hPa
Press
MSL
hPa
Rain
since 9 am
mm
Dir
 
Spd
km/h
Gust
km/h
Spd
kts
Gust
kts
06/11:30pm 14.1 - - - - - - - - - 1004.1 1004.1 -
06/11:00pm 14.4 - - - - - - - - - 1004.5 1004.5 -
06/10:30pm 14.3 - - - - - - - - - 1004.8 1004.8 -
06/10:00pm 14.8 - - - - - - - - - 1005.1 1005.1 -
06/09:30pm 15.7 - - - - - - - - - 1005.4 1005.4 -
06/09:00pm 16.6 - - - - - - - - - 1005.6 1005.6 -
06/08:30pm 17.3 - - - - - - - - - 1006.0 1006.0 -
06/08:00pm 17.7 - - - - - - - - - 1006.0 1006.0 -
06/07:30pm 17.7 - - - - - - - - - 1006.0 1006.0 -
06/07:00pm 17.7 - - - - - - - - - 1006.1 1006.1 -
06/06:30pm 17.8 - - - - - - - - - 1005.9 1005.9 -
06/06:00pm 18.0 - - - - - - - - - 1005.7 1005.7 -
06/05:30pm 18.0 - - - - - - - - - 1005.5 1005.5 -
06/05:00pm 18.4 - - - - - - - - - 1005.3 1005.3 -
06/04:30pm 18.3 - - - - - - - - - 1005.6 1005.6 -
06/04:00pm 18.7 - - - - - - - - - 1005.3 1005.3 -
06/03:30pm 18.8 - - - - - - - - - 1005.2 1005.2 -
06/03:00pm 19.4 - - - - - - - - - 1005.2 1005.2 -
06/02:30pm 18.9 - - - - - - - - - 1005.6 1005.6 -
06/02:00pm 21.0 - - - - - - - - - 1005.8 1005.8 -
06/01:30pm 20.4 - - - - - - - - - 1006.4 1006.4 -
06/01:00pm 20.2 - - - - - - - - - 1006.7 1006.7 -
06/12:30pm 20.2 - - - - - - - - - 1007.1 1007.1 -
06/12:00pm 19.9 - - - - - - - - - 1007.9 1007.9 -
06/11:30am 19.1 - - - - - - - - - 1008.7 1008.7 -
06/11:00am 18.4 - - - - - - - - - 1009.4 1009.4 -
06/10:30am 17.3 - - - - - - - - - 1010.1 1010.1 -
06/10:00am 16.3 - - - - - - - - - 1010.7 1010.7 -
06/09:30am 15.7 - - - - - - - - - 1011.3 1011.3 -
06/09:00am 14.4 - - - - - - - - - 1011.6 1011.6 -
06/08:30am 13.6 - - - - - - - - - 1012.2 1012.2 -
06/08:00am 12.7 - - - - - - - - - 1012.3 1012.3 -
06/07:30am 12.5 - - - - - - - - - 1012.2 1012.2 -
06/07:00am 12.7 - - - - - - - - - 1012.0 1012.0 -
06/06:30am 13.0 - - - - - - - - - 1011.7 1011.7 -
06/06:00am 13.0 - - - - - - - - - 1011.9 1011.9 -
06/05:30am 12.3 - - - - - - - - - 1011.9 1011.9 -
06/05:00am 12.1 - - - - - - - - - 1011.9 1011.9 -
06/04:30am 11.4 - - - - - - - - - 1012.0 1012.0 -
06/04:00am 11.6 - - - - - - - - - 1011.9 1011.9 -
06/03:30am 10.8 - - - - - - - - - 1012.3 1012.3 -
06/03:00am 10.1 - - - - - - - - - 1012.6 1012.6 -
06/02:30am 10.1 - - - - - - - - - 1012.9 1012.9 -
06/02:00am 10.6 - - - - - - - - - 1013.2 1013.2 -
06/01:30am 10.7 - - - - - - - - - 1013.1 1013.1 -
06/01:00am 12.1 - - - - - - - - - 1013.0 1013.0 -
06/12:30am 11.7 - - - - - - - - - 1013.2 1013.2 -
06/12:00am 12.3 - - - - - - - - - 1013.4 1013.4 -
 
Date/Time
WST
Temp
°C
App
Temp
°C
Dew
Point
Rel
Hum
%
Delta-T
°C
Wind Press
QNH
hPa
Press
MSL
hPa
Rain
since 9 am
mm
Dir
 
Spd
km/h
Gust
km/h
Spd
kts
Gust
kts
05/11:30pm 13.0 - - - - - - - - - 1013.7 1013.7 -
05/11:00pm 13.3 - - - - - - - - - 1013.9 1013.9 -
05/10:30pm 13.5 - - - - - - - - - 1014.3 1014.3 -
05/10:00pm 13.8 - - - - - - - - - 1014.6 1014.6 -
05/09:30pm 16.0 - - - - - - - - - 1014.8 1014.8 -
05/09:00pm 16.2 - - - - - - - - - 1014.8 1014.8 -
05/08:30pm 16.2 - - - - - - - - - 1014.9 1014.9 -
05/08:00pm 16.6 - - - - - - - - - 1015.0 1015.0 -
05/07:30pm 16.7 - - - - - - - - - 1014.8 1014.8 -
05/07:00pm 16.7 - - - - - - - - - 1014.5 1014.5 -
05/06:30pm 16.7 - - - - - - - - - 1014.0 1014.0 -
05/06:00pm 16.8 - - - - - - - - - 1014.0 1014.0 -
05/05:30pm 17.0 - - - - - - - - - 1013.9 1013.9 -
05/05:00pm 16.9 - - - - - - - - - 1013.6 1013.6 -
05/04:30pm 17.4 - - - - - - - - - 1013.4 1013.4 -
05/04:00pm 17.6 - - - - - - - - - 1013.4 1013.4 -
05/03:30pm 18.1 - - - - - - - - - 1013.2 1013.2 -
05/03:00pm 17.9 - - - - - - - - - 1013.2 1013.2 -
05/02:30pm 18.0 - - - - - - - - - 1012.9 1012.9 -
05/02:00pm 18.7 - - - - - - - - - 1013.0 1013.0 -
05/01:30pm 18.5 - - - - - - - - - 1012.9 1012.9 -
05/01:00pm 18.4 - - - - - - - - - 1013.0 1013.0 -
05/12:30pm 17.8 - - - - - - - - - 1013.1 1013.1 -
05/12:00pm 17.9 - - - - - - - - - 1013.4 1013.4 -
05/11:30am 17.7 - - - - - - - - - 1013.7 1013.7 -
05/11:00am 17.2 - - - - - - - - - 1013.9 1013.9 -
05/10:30am 16.5 - - - - - - - - - 1014.0 1014.0 -
05/10:00am 15.7 - - - - - - - - - 1013.8 1013.8 -
05/09:30am 14.8 - - - - - - - - - 1013.8 1013.8 -
05/09:00am 14.0 - - - - - - - - - 1013.8 1013.8 -
05/08:30am 13.6 - - - - - - - - - 1013.6 1013.6 -
05/08:00am 13.6 - - - - - - - - - 1013.3 1013.3 -
05/07:30am 13.8 - - - - - - - - - 1012.9 1012.9 -
05/07:00am 13.7 - - - - - - - - - 1012.3 1012.3 -
05/06:30am 13.7 - - - - - - - - - 1012.0 1012.0 -
05/06:00am 13.7 - - - - - - - - - 1011.8 1011.8 -
05/05:30am 14.1 - - - - - - - - - 1011.4 1011.4 -
05/05:00am 13.9 - - - - - - - - - 1011.2 1011.2 -
05/04:30am 14.0 - - - - - - - - - 1010.9 1010.9 -
05/04:00am 14.3 - - - - - - - - - 1010.7 1010.7 -
05/03:30am 14.3 - - - - - - - - - 1010.6 1010.6 -
05/03:00am 14.2 - - - - - - - - - 1010.5 1010.5 -
05/02:30am 14.5 - - - - - - - - - 1010.5 1010.5 -
05/02:00am 14.4 - - - - - - - - - 1010.5 1010.5 -
05/01:30am 14.2 - - - - - - - - - 1010.6 1010.6 -
05/01:00am 14.1 - - - - - - - - - 1010.9 1010.9 -
05/12:30am 14.1 - - - - - - - - - 1010.9 1010.9 -
05/12:00am 14.5 - - - - - - - - - 1010.9 1010.9 -
 
Date/Time
WST
Temp
°C
App
Temp
°C
Dew
Point
Rel
Hum
%
Delta-T
°C
Wind Press
QNH
hPa
Press
MSL
hPa
Rain
since 9 am
mm
Dir
 
Spd
km/h
Gust
km/h
Spd
kts
Gust
kts
04/11:30pm 14.5 - - - - - - - - - 1010.9 1010.9 -
04/11:00pm 13.9 - - - - - - - - - 1010.9 1010.9 -
04/10:30pm 13.7 - - - - - - - - - 1011.0 1011.0 -
04/10:00pm 13.7 - - - - - - - - - 1011.0 1011.0 -
04/09:30pm 13.6 - - - - - - - - - 1011.1 1011.1 -
04/09:00pm 13.7 - - - - - - - - - 1011.3 1011.3 -
04/08:30pm 13.9 - - - - - - - - - 1011.5 1011.5 -
04/08:00pm 15.3 - - - - - - - - - 1011.4 1011.4 -
04/07:30pm 15.7 - - - - - - - - - 1011.5 1011.5 -
04/07:00pm 16.0 - - - - - - - - - 1011.3 1011.3 -
04/06:30pm 16.1 - - - - - - - - - 1011.3 1011.3 -
04/06:00pm 16.8 - - - - - - - - - 1011.0 1011.0 -
04/05:30pm 16.9 - - - - - - - - - 1010.8 1010.8 -
04/05:00pm 17.5 - - - - - - - - - 1010.8 1010.8 -
04/04:30pm 18.2 - - - - - - - - - 1010.9 1010.9 -
04/04:00pm 18.8 - - - - - - - - - 1011.1 1011.1 -
04/03:30pm 19.1 - - - - - - - - - 1011.1 1011.1 -
04/03:00pm 19.1 - - - - - - - - - 1011.2 1011.2 -
04/02:30pm 18.9 - - - - - - - - - 1011.2 1011.2 -
04/02:00pm 19.5 - - - - - - - - - 1011.5 1011.5 -
04/01:30pm 19.0 - - - - - - - - - 1011.7 1011.7 -
04/01:00pm 18.7 - - - - - - - - - 1012.0 1012.0 -
04/12:30pm 18.7 - - - - - - - - - 1012.5 1012.5 -
04/12:00pm 18.8 - - - - - - - - - 1013.0 1013.0 -
04/11:30am 18.5 - - - - - - - - - 1013.7 1013.7 -
04/11:00am 18.4 - - - - - - - - - 1014.0 1014.0 -
04/10:30am 18.0 - - - - - - - - - 1014.4 1014.4 -
04/10:00am 17.5 - - - - - - - - - 1014.6 1014.6 -
04/09:30am 16.5 - - - - - - - - - 1015.0 1015.0 -
04/09:00am 15.4 - - - - - - - - - 1015.5 1015.5 -
04/08:30am 14.4 - - - - - - - - - 1015.7 1015.7 -
04/08:00am 13.7 - - - - - - - - - 1015.7 1015.7 -
04/07:30am 12.8 - - - - - - - - - 1015.6 1015.6 -
04/07:00am 12.0 - - - - - - - - - 1015.5 1015.5 -
04/06:30am 11.9 - - - - - - - - - 1015.4 1015.4 -
04/06:00am 11.7 - - - - - - - - - 1015.3 1015.3 -
04/05:30am 11.7 - - - - - - - - - 1015.3 1015.3 -
04/05:00am 11.5 - - - - - - - - - 1015.3 1015.3 -
04/04:30am 11.4 - - - - - - - - - 1015.4 1015.4 -
04/04:00am 11.6 - - - - - - - - - 1015.4 1015.4 -
04/03:30am 11.6 - - - - - - - - - 1015.5 1015.5 -
04/03:00am 11.3 - - - - - - - - - 1015.7 1015.7 -

Other Formats:

Comma delimited format used in spreadsheet applications
http://www.bom.gov.au/fwo/IDW60801/IDW60801.95648.axf

JavaScript Object Notation format (JSON) in row-major order
http://www.bom.gov.au/fwo/IDW60801/IDW60801.95648.json